sensor_id;sensor_type;location;lat;lon;timestamp;temperature;humidity
3256;DHT22;1640;48.504;9.224;2022-12-18T00:00:03;-10.40;99.90
3256;DHT22;1640;48.504;9.224;2022-12-18T00:02:31;-10.40;99.90
3256;DHT22;1640;48.504;9.224;2022-12-18T00:04:59;-10.50;99.90
3256;DHT22;1640;48.504;9.224;2022-12-18T00:07:26;-10.50;99.90
3256;DHT22;1640;48.504;9.224;2022-12-18T00:09:54;-10.50;99.90
3256;DHT22;1640;48.504;9.224;2022-12-18T00:12:21;-10.60;99.90
3256;DHT22;1640;48.504;9.224;2022-12-18T00:14:48;-10.70;99.90
3256;DHT22;1640;48.504;9.224;2022-12-18T00:17:17;-10.70;99.90
3256;DHT22;1640;48.504;9.224;2022-12-18T00:19:45;-10.80;99.90
3256;DHT22;1640;48.504;9.224;2022-12-18T00:24:40;-10.90;99.90
3256;DHT22;1640;48.504;9.224;2022-12-18T00:27:07;-10.80;99.90
3256;DHT22;1640;48.504;9.224;2022-12-18T00:29:35;-10.90;99.90
3256;DHT22;1640;48.504;9.224;2022-12-18T00:32:02;-10.90;99.90
3256;DHT22;1640;48.504;9.224;2022-12-18T00:34:31;-10.90;99.90
3256;DHT22;1640;48.504;9.224;2022-12-18T00:36:58;-10.90;99.90
3256;DHT22;1640;48.504;9.224;2022-12-18T00:39:26;-10.90;99.90
3256;DHT22;1640;48.504;9.224;2022-12-18T00:41:53;-10.90;99.90
3256;DHT22;1640;48.504;9.224;2022-12-18T00:44:38;-11.00;99.90
3256;DHT22;1640;48.504;9.224;2022-12-18T00:47:05;-11.00;99.90
3256;DHT22;1640;48.504;9.224;2022-12-18T00:49:34;-11.10;99.90
3256;DHT22;1640;48.504;9.224;2022-12-18T00:52:01;-11.10;99.90
3256;DHT22;1640;48.504;9.224;2022-12-18T00:54:29;-11.10;99.90
3256;DHT22;1640;48.504;9.224;2022-12-18T00:56:56;-11.10;99.90
3256;DHT22;1640;48.504;9.224;2022-12-18T00:59:24;-11.10;99.90
3256;DHT22;1640;48.504;9.224;2022-12-18T01:01:51;-11.20;99.90
3256;DHT22;1640;48.504;9.224;2022-12-18T01:04:18;-11.20;99.90
3256;DHT22;1640;48.504;9.224;2022-12-18T01:06:47;-11.30;99.90
3256;DHT22;1640;48.504;9.224;2022-12-18T01:09:15;-11.30;99.90
3256;DHT22;1640;48.504;9.224;2022-12-18T01:11:42;-11.30;99.90
3256;DHT22;1640;48.504;9.224;2022-12-18T01:14:09;-11.40;99.90
3256;DHT22;1640;48.504;9.224;2022-12-18T01:16:37;-11.40;99.90
3256;DHT22;1640;48.504;9.224;2022-12-18T01:19:04;-11.40;99.90
3256;DHT22;1640;48.504;9.224;2022-12-18T01:21:32;-11.40;99.90
3256;DHT22;1640;48.504;9.224;2022-12-18T01:24:01;-11.40;99.90
3256;DHT22;1640;48.504;9.224;2022-12-18T01:26:28;-11.40;99.90
3256;DHT22;1640;48.504;9.224;2022-12-18T01:28:56;-11.40;99.90
3256;DHT22;1640;48.504;9.224;2022-12-18T01:31:26;-11.50;99.90
3256;DHT22;1640;48.504;9.224;2022-12-18T01:33:54;-11.50;99.90
3256;DHT22;1640;48.504;9.224;2022-12-18T01:36:23;-11.50;99.90
3256;DHT22;1640;48.504;9.224;2022-12-18T01:38:51;-11.60;99.90
3256;DHT22;1640;48.504;9.224;2022-12-18T01:41:23;-11.50;99.90
3256;DHT22;1640;48.504;9.224;2022-12-18T01:43:53;-11.60;99.90
3256;DHT22;1640;48.504;9.224;2022-12-18T01:46:22;-11.50;99.90
3256;DHT22;1640;48.504;9.224;2022-12-18T01:48:51;-11.60;99.90
3256;DHT22;1640;48.504;9.224;2022-12-18T01:51:19;-11.60;99.90
3256;DHT22;1640;48.504;9.224;2022-12-18T01:53:47;-11.60;99.90
3256;DHT22;1640;48.504;9.224;2022-12-18T01:56:16;-11.50;99.90
3256;DHT22;1640;48.504;9.224;2022-12-18T01:58:52;-11.40;99.90
3256;DHT22;1640;48.504;9.224;2022-12-18T02:01:22;-11.30;99.90
3256;DHT22;1640;48.504;9.224;2022-12-18T02:03:50;-11.30;99.90
3256;DHT22;1640;48.504;9.224;2022-12-18T02:06:21;-11.30;99.90
3256;DHT22;1640;48.504;9.224;2022-12-18T02:08:58;-11.20;99.90
3256;DHT22;1640;48.504;9.224;2022-12-18T02:11:37;-11.20;99.90
3256;DHT22;1640;48.504;9.224;2022-12-18T02:14:17;-11.20;99.90
3256;DHT22;1640;48.504;9.224;2022-12-18T02:16:50;-11.10;99.90
3256;DHT22;1640;48.504;9.224;2022-12-18T02:19:39;-11.10;99.90
3256;DHT22;1640;48.504;9.224;2022-12-18T02:22:25;-11.20;99.90
3256;DHT22;1640;48.504;9.224;2022-12-18T02:25:00;-11.10;99.90
3256;DHT22;1640;48.504;9.224;2022-12-18T02:27:34;-11.00;99.90
3256;DHT22;1640;48.504;9.224;2022-12-18T02:30:05;-11.10;99.90
3256;DHT22;1640;48.504;9.224;2022-12-18T02:32:35;-11.10;99.90
3256;DHT22;1640;48.504;9.224;2022-12-18T02:35:07;-11.10;99.90
3256;DHT22;1640;48.504;9.224;2022-12-18T02:37:36;-11.00;99.90
3256;DHT22;1640;48.504;9.224;2022-12-18T02:40:05;-11.00;99.90
3256;DHT22;1640;48.504;9.224;2022-12-18T02:42:35;-11.00;99.90
3256;DHT22;1640;48.504;9.224;2022-12-18T02:45:02;-11.00;99.90
3256;DHT22;1640;48.504;9.224;2022-12-18T02:47:34;-11.10;99.90
3256;DHT22;1640;48.504;9.224;2022-12-18T02:50:10;-11.30;99.90
3256;DHT22;1640;48.504;9.224;2022-12-18T02:52:48;-11.30;99.90
3256;DHT22;1640;48.504;9.224;2022-12-18T02:55:27;-11.30;99.90
3256;DHT22;1640;48.504;9.224;2022-12-18T02:58:00;-11.40;1.40
3256;DHT22;1640;48.504;9.224;2022-12-18T03:00:34;-11.40;99.90
3256;DHT22;1640;48.504;9.224;2022-12-18T03:03:07;-11.50;99.90
3256;DHT22;1640;48.504;9.224;2022-12-18T03:05:43;-11.40;99.90
3256;DHT22;1640;48.504;9.224;2022-12-18T03:08:14;-11.50;99.90
3256;DHT22;1640;48.504;9.224;2022-12-18T03:10:49;-11.50;99.90
3256;DHT22;1640;48.504;9.224;2022-12-18T03:13:23;-11.40;99.90
3256;DHT22;1640;48.504;9.224;2022-12-18T03:16:00;-11.40;99.90
3256;DHT22;1640;48.504;9.224;2022-12-18T03:18:32;-11.40;99.90
3256;DHT22;1640;48.504;9.224;2022-12-18T03:21:02;-11.50;99.90
3256;DHT22;1640;48.504;9.224;2022-12-18T03:23:35;-11.40;99.90
3256;DHT22;1640;48.504;9.224;2022-12-18T03:26:07;-11.30;99.90
3256;DHT22;1640;48.504;9.224;2022-12-18T03:28:39;-11.30;99.90
3256;DHT22;1640;48.504;9.224;2022-12-18T03:31:10;-11.30;99.90
3256;DHT22;1640;48.504;9.224;2022-12-18T03:33:43;-11.20;99.90
3256;DHT22;1640;48.504;9.224;2022-12-18T03:36:13;-11.20;99.90
3256;DHT22;1640;48.504;9.224;2022-12-18T03:38:41;-11.10;99.90
3256;DHT22;1640;48.504;9.224;2022-12-18T03:41:15;-11.10;99.90
3256;DHT22;1640;48.504;9.224;2022-12-18T03:43:50;-11.10;99.90
3256;DHT22;1640;48.504;9.224;2022-12-18T03:46:25;-11.10;99.90
3256;DHT22;1640;48.504;9.224;2022-12-18T03:49:00;-11.10;99.90
3256;DHT22;1640;48.504;9.224;2022-12-18T03:51:32;-11.00;99.90
3256;DHT22;1640;48.504;9.224;2022-12-18T03:54:05;-10.90;99.90
3256;DHT22;1640;48.504;9.224;2022-12-18T03:56:39;-10.90;99.90
3256;DHT22;1640;48.504;9.224;2022-12-18T03:59:11;-10.90;99.90
3256;DHT22;1640;48.504;9.224;2022-12-18T04:01:47;-10.90;99.90
3256;DHT22;1640;48.504;9.224;2022-12-18T04:04:18;-10.80;99.90
3256;DHT22;1640;48.504;9.224;2022-12-18T04:06:47;-10.70;99.90
3256;DHT22;1640;48.504;9.224;2022-12-18T04:09:15;-10.70;99.90
3256;DHT22;1640;48.504;9.224;2022-12-18T04:11:42;-10.70;99.90
3256;DHT22;1640;48.504;9.224;2022-12-18T04:14:12;-10.70;99.90
3256;DHT22;1640;48.504;9.224;2022-12-18T04:16:39;-10.70;99.90
3256;DHT22;1640;48.504;9.224;2022-12-18T04:19:07;-10.70;99.90
3256;DHT22;1640;48.504;9.224;2022-12-18T04:21:34;-10.70;99.90
3256;DHT22;1640;48.504;9.224;2022-12-18T04:24:02;-10.70;99.90
3256;DHT22;1640;48.504;9.224;2022-12-18T04:26:29;-10.80;99.90
3256;DHT22;1640;48.504;9.224;2022-12-18T04:28:56;-10.80;99.90
3256;DHT22;1640;48.504;9.224;2022-12-18T04:31:26;-10.80;99.90
3256;DHT22;1640;48.504;9.224;2022-12-18T04:33:53;-10.80;99.90
3256;DHT22;1640;48.504;9.224;2022-12-18T04:36:20;-10.80;99.90
3256;DHT22;1640;48.504;9.224;2022-12-18T04:38:48;-10.90;99.90
3256;DHT22;1640;48.504;9.224;2022-12-18T04:41:15;-10.90;99.90
3256;DHT22;1640;48.504;9.224;2022-12-18T04:43:43;-10.90;99.90
3256;DHT22;1640;48.504;9.224;2022-12-18T04:46:10;-11.00;99.90
3256;DHT22;1640;48.504;9.224;2022-12-18T04:48:39;-11.00;99.90
3256;DHT22;1640;48.504;9.224;2022-12-18T04:51:07;-10.90;99.90
3256;DHT22;1640;48.504;9.224;2022-12-18T04:53:34;-10.90;99.90
3256;DHT22;1640;48.504;9.224;2022-12-18T04:56:03;-10.80;99.90
3256;DHT22;1640;48.504;9.224;2022-12-18T04:58:31;-10.90;99.90
3256;DHT22;1640;48.504;9.224;2022-12-18T05:00:58;-10.80;99.90
3256;DHT22;1640;48.504;9.224;2022-12-18T05:03:26;-10.80;99.90
3256;DHT22;1640;48.504;9.224;2022-12-18T05:05:55;-10.80;99.90
3256;DHT22;1640;48.504;9.224;2022-12-18T05:08:22;-10.80;99.90
3256;DHT22;1640;48.504;9.224;2022-12-18T05:10:57;-10.90;99.90
3256;DHT22;1640;48.504;9.224;2022-12-18T05:13:25;-10.90;99.90
3256;DHT22;1640;48.504;9.224;2022-12-18T05:15:52;-11.00;99.90
3256;DHT22;1640;48.504;9.224;2022-12-18T05:18:20;-11.00;99.90
3256;DHT22;1640;48.504;9.224;2022-12-18T05:20:48;-11.10;99.90
3256;DHT22;1640;48.504;9.224;2022-12-18T05:23:17;-11.10;99.90
3256;DHT22;1640;48.504;9.224;2022-12-18T05:25:50;-11.20;99.90
3256;DHT22;1640;48.504;9.224;2022-12-18T05:28:17;-11.20;99.90
3256;DHT22;1640;48.504;9.224;2022-12-18T05:30:48;-11.20;99.90
3256;DHT22;1640;48.504;9.224;2022-12-18T05:33:16;-11.20;99.90
3256;DHT22;1640;48.504;9.224;2022-12-18T05:35:43;-11.20;99.90
3256;DHT22;1640;48.504;9.224;2022-12-18T05:38:11;-11.30;99.90
3256;DHT22;1640;48.504;9.224;2022-12-18T05:40:43;-11.30;99.90
3256;DHT22;1640;48.504;9.224;2022-12-18T05:43:10;-11.40;99.90
3256;DHT22;1640;48.504;9.224;2022-12-18T05:45:38;-11.40;99.90
3256;DHT22;1640;48.504;9.224;2022-12-18T05:48:06;-11.40;99.90
3256;DHT22;1640;48.504;9.224;2022-12-18T05:50:34;-11.40;99.90
3256;DHT22;1640;48.504;9.224;2022-12-18T05:53:02;-11.40;99.90
3256;DHT22;1640;48.504;9.224;2022-12-18T05:55:32;-11.40;99.90
3256;DHT22;1640;48.504;9.224;2022-12-18T05:58:01;-11.40;99.90
3256;DHT22;1640;48.504;9.224;2022-12-18T06:00:29;-11.40;99.90
3256;DHT22;1640;48.504;9.224;2022-12-18T06:02:56;-11.50;99.90
3256;DHT22;1640;48.504;9.224;2022-12-18T06:05:24;-11.50;99.90
3256;DHT22;1640;48.504;9.224;2022-12-18T06:07:51;-11.50;99.90
3256;DHT22;1640;48.504;9.224;2022-12-18T06:10:18;-11.50;99.90
3256;DHT22;1640;48.504;9.224;2022-12-18T06:12:46;-11.50;99.90
3256;DHT22;1640;48.504;9.224;2022-12-18T06:15:15;-11.50;99.90
3256;DHT22;1640;48.504;9.224;2022-12-18T06:17:42;-11.50;99.90
3256;DHT22;1640;48.504;9.224;2022-12-18T06:20:10;-11.60;99.90
3256;DHT22;1640;48.504;9.224;2022-12-18T06:22:37;-11.60;99.90
3256;DHT22;1640;48.504;9.224;2022-12-18T06:25:06;-11.60;99.90
3256;DHT22;1640;48.504;9.224;2022-12-18T06:27:33;-11.60;99.90
3256;DHT22;1640;48.504;9.224;2022-12-18T06:30:01;-11.60;99.90
3256;DHT22;1640;48.504;9.224;2022-12-18T06:32:30;-11.60;99.90
3256;DHT22;1640;48.504;9.224;2022-12-18T06:34:57;-11.60;99.90
3256;DHT22;1640;48.504;9.224;2022-12-18T06:37:25;-11.60;99.90
3256;DHT22;1640;48.504;9.224;2022-12-18T06:39:53;-11.60;99.90
3256;DHT22;1640;48.504;9.224;2022-12-18T06:42:20;-11.70;99.90
3256;DHT22;1640;48.504;9.224;2022-12-18T06:44:47;-11.60;99.90
3256;DHT22;1640;48.504;9.224;2022-12-18T06:47:15;-11.70;99.90
3256;DHT22;1640;48.504;9.224;2022-12-18T06:49:44;-11.70;99.90
3256;DHT22;1640;48.504;9.224;2022-12-18T06:52:12;-11.70;99.90
3256;DHT22;1640;48.504;9.224;2022-12-18T06:54:39;-11.70;99.90
3256;DHT22;1640;48.504;9.224;2022-12-18T06:57:06;-11.80;99.90
3256;DHT22;1640;48.504;9.224;2022-12-18T06:59:34;-11.80;99.90
3256;DHT22;1640;48.504;9.224;2022-12-18T07:02:01;-11.80;99.90
3256;DHT22;1640;48.504;9.224;2022-12-18T07:04:29;-11.80;99.90
3256;DHT22;1640;48.504;9.224;2022-12-18T07:06:58;-11.80;99.90
3256;DHT22;1640;48.504;9.224;2022-12-18T07:09:26;-11.80;99.90
3256;DHT22;1640;48.504;9.224;2022-12-18T07:11:53;-11.90;99.90
3256;DHT22;1640;48.504;9.224;2022-12-18T07:14:21;-11.90;99.90
3256;DHT22;1640;48.504;9.224;2022-12-18T07:16:48;-11.90;99.90
3256;DHT22;1640;48.504;9.224;2022-12-18T07:19:15;-11.90;99.90
3256;DHT22;1640;48.504;9.224;2022-12-18T07:21:43;-11.90;99.90
3256;DHT22;1640;48.504;9.224;2022-12-18T07:24:12;-11.90;99.90
3256;DHT22;1640;48.504;9.224;2022-12-18T07:26:39;-11.90;99.90
3256;DHT22;1640;48.504;9.224;2022-12-18T07:29:07;-11.80;99.90
3256;DHT22;1640;48.504;9.224;2022-12-18T07:31:34;-11.80;99.90
3256;DHT22;1640;48.504;9.224;2022-12-18T07:34:01;-11.70;99.90
3256;DHT22;1640;48.504;9.224;2022-12-18T07:36:29;-11.70;99.90
3256;DHT22;1640;48.504;9.224;2022-12-18T07:38:56;-11.70;99.90
3256;DHT22;1640;48.504;9.224;2022-12-18T07:41:25;-11.70;99.90
3256;DHT22;1640;48.504;9.224;2022-12-18T07:43:52;-11.60;99.90
3256;DHT22;1640;48.504;9.224;2022-12-18T07:46:20;-11.70;99.90
3256;DHT22;1640;48.504;9.224;2022-12-18T07:48:47;-11.60;99.90
3256;DHT22;1640;48.504;9.224;2022-12-18T07:51:15;-11.60;99.90
3256;DHT22;1640;48.504;9.224;2022-12-18T07:53:42;-11.60;99.90
3256;DHT22;1640;48.504;9.224;2022-12-18T07:56:11;-11.50;99.90
3256;DHT22;1640;48.504;9.224;2022-12-18T07:58:40;-11.60;99.90
3256;DHT22;1640;48.504;9.224;2022-12-18T08:01:09;-11.50;99.90
3256;DHT22;1640;48.504;9.224;2022-12-18T08:03:38;-11.40;99.90
3256;DHT22;1640;48.504;9.224;2022-12-18T08:06:08;-11.30;99.90
3256;DHT22;1640;48.504;9.224;2022-12-18T08:08:36;-11.20;99.90
3256;DHT22;1640;48.504;9.224;2022-12-18T08:11:04;-11.10;99.90
3256;DHT22;1640;48.504;9.224;2022-12-18T08:13:31;-11.10;99.90
3256;DHT22;1640;48.504;9.224;2022-12-18T08:16:01;-11.10;99.90
3256;DHT22;1640;48.504;9.224;2022-12-18T08:18:31;-11.10;99.90
3256;DHT22;1640;48.504;9.224;2022-12-18T08:21:08;-11.00;99.90
3256;DHT22;1640;48.504;9.224;2022-12-18T08:23:36;-10.80;99.90
3256;DHT22;1640;48.504;9.224;2022-12-18T08:26:04;-10.80;99.90
3256;DHT22;1640;48.504;9.224;2022-12-18T08:28:31;-10.70;99.90
3256;DHT22;1640;48.504;9.224;2022-12-18T08:31:00;-10.70;99.90
3256;DHT22;1640;48.504;9.224;2022-12-18T08:33:28;-10.60;99.90
3256;DHT22;1640;48.504;9.224;2022-12-18T08:35:55;-10.60;99.90
3256;DHT22;1640;48.504;9.224;2022-12-18T08:38:22;-10.60;0.50
3256;DHT22;1640;48.504;9.224;2022-12-18T08:40:53;-10.50;99.90
3256;DHT22;1640;48.504;9.224;2022-12-18T08:43:21;-10.40;99.90
3256;DHT22;1640;48.504;9.224;2022-12-18T08:46:07;-10.30;99.90
3256;DHT22;1640;48.504;9.224;2022-12-18T08:48:35;-10.30;2.10
3256;DHT22;1640;48.504;9.224;2022-12-18T08:51:03;-10.20;2.20
3256;DHT22;1640;48.504;9.224;2022-12-18T08:53:30;-10.10;5.30
3256;DHT22;1640;48.504;9.224;2022-12-18T08:55:57;-10.20;7.50
3256;DHT22;1640;48.504;9.224;2022-12-18T08:58:25;-10.20;9.00
3256;DHT22;1640;48.504;9.224;2022-12-18T09:00:53;-10.20;8.20
3256;DHT22;1640;48.504;9.224;2022-12-18T09:03:22;-10.20;8.40
3256;DHT22;1640;48.504;9.224;2022-12-18T09:05:49;-10.20;7.80
3256;DHT22;1640;48.504;9.224;2022-12-18T09:08:17;-10.20;7.30
3256;DHT22;1640;48.504;9.224;2022-12-18T09:10:45;-10.10;5.80
3256;DHT22;1640;48.504;9.224;2022-12-18T09:13:14;-10.20;6.30
3256;DHT22;1640;48.504;9.224;2022-12-18T09:15:42;-10.10;3.10
3256;DHT22;1640;48.504;9.224;2022-12-18T09:18:09;-9.90;2.40
3256;DHT22;1640;48.504;9.224;2022-12-18T09:20:38;-9.90;6.50
3256;DHT22;1640;48.504;9.224;2022-12-18T09:23:06;-9.90;7.60
3256;DHT22;1640;48.504;9.224;2022-12-18T09:25:35;-9.90;7.60
3256;DHT22;1640;48.504;9.224;2022-12-18T09:28:04;-9.80;4.50
3256;DHT22;1640;48.504;9.224;2022-12-18T09:30:32;-9.70;3.20
3256;DHT22;1640;48.504;9.224;2022-12-18T09:33:00;-9.60;2.90
3256;DHT22;1640;48.504;9.224;2022-12-18T09:35:28;-9.40;99.90
3256;DHT22;1640;48.504;9.224;2022-12-18T09:37:56;-9.20;99.90
3256;DHT22;1640;48.504;9.224;2022-12-18T09:40:26;-9.00;99.90
3256;DHT22;1640;48.504;9.224;2022-12-18T09:42:59;-8.90;99.90
3256;DHT22;1640;48.504;9.224;2022-12-18T09:45:28;-8.60;99.90
3256;DHT22;1640;48.504;9.224;2022-12-18T09:47:57;-8.60;2.90
3256;DHT22;1640;48.504;9.224;2022-12-18T09:50:28;-8.50;2.70
3256;DHT22;1640;48.504;9.224;2022-12-18T09:53:02;-8.50;4.00
3256;DHT22;1640;48.504;9.224;2022-12-18T09:55:33;-8.30;99.90
3256;DHT22;1640;48.504;9.224;2022-12-18T09:58:06;-8.10;99.90
3256;DHT22;1640;48.504;9.224;2022-12-18T10:00:37;-7.90;99.90
3256;DHT22;1640;48.504;9.224;2022-12-18T10:03:10;-7.80;99.90
3256;DHT22;1640;48.504;9.224;2022-12-18T10:05:44;-7.70;99.90
3256;DHT22;1640;48.504;9.224;2022-12-18T10:08:18;-7.60;99.90
3256;DHT22;1640;48.504;9.224;2022-12-18T10:10:50;-7.50;99.90
3256;DHT22;1640;48.504;9.224;2022-12-18T10:13:23;-7.30;99.90
3256;DHT22;1640;48.504;9.224;2022-12-18T10:16:03;-7.20;99.90
3256;DHT22;1640;48.504;9.224;2022-12-18T10:18:50;-7.10;99.90
3256;DHT22;1640;48.504;9.224;2022-12-18T10:21:26;-7.00;99.90
3256;DHT22;1640;48.504;9.224;2022-12-18T10:24:03;-6.80;99.90
3256;DHT22;1640;48.504;9.224;2022-12-18T10:26:36;-6.80;3.40
3256;DHT22;1640;48.504;9.224;2022-12-18T10:29:08;-6.60;3.20
3256;DHT22;1640;48.504;9.224;2022-12-18T10:31:38;-6.50;3.90
3256;DHT22;1640;48.504;9.224;2022-12-18T10:34:09;-6.30;4.40
3256;DHT22;1640;48.504;9.224;2022-12-18T10:36:37;-6.10;99.90
3256;DHT22;1640;48.504;9.224;2022-12-18T10:39:19;-6.00;99.90
3256;DHT22;1640;48.504;9.224;2022-12-18T10:41:48;-5.80;99.90
3256;DHT22;1640;48.504;9.224;2022-12-18T10:44:18;-5.80;3.60
3256;DHT22;1640;48.504;9.224;2022-12-18T10:46:48;-5.70;4.70
3256;DHT22;1640;48.504;9.224;2022-12-18T10:49:21;-5.80;13.60
3256;DHT22;1640;48.504;9.224;2022-12-18T10:51:49;-5.90;15.40
3256;DHT22;1640;48.504;9.224;2022-12-18T10:54:22;-5.70;11.30
3256;DHT22;1640;48.504;9.224;2022-12-18T10:56:50;-5.70;15.80
3256;DHT22;1640;48.504;9.224;2022-12-18T10:59:18;-5.80;14.90
3256;DHT22;1640;48.504;9.224;2022-12-18T11:01:48;-5.60;8.80
3256;DHT22;1640;48.504;9.224;2022-12-18T11:04:19;-5.30;2.80
3256;DHT22;1640;48.504;9.224;2022-12-18T11:06:56;-5.00;1.50
3256;DHT22;1640;48.504;9.224;2022-12-18T11:09:26;-4.70;2.10
3256;DHT22;1640;48.504;9.224;2022-12-18T11:11:55;-4.50;9.10
3256;DHT22;1640;48.504;9.224;2022-12-18T11:14:27;-4.40;9.00
3256;DHT22;1640;48.504;9.224;2022-12-18T11:16:55;-4.40;16.50
3256;DHT22;1640;48.504;9.224;2022-12-18T11:19:30;-4.20;18.60
3256;DHT22;1640;48.504;9.224;2022-12-18T11:21:59;-4.10;19.20
3256;DHT22;1640;48.504;9.224;2022-12-18T11:24:30;-3.90;20.00
3256;DHT22;1640;48.504;9.224;2022-12-18T11:27:00;-4.00;28.30
3256;DHT22;1640;48.504;9.224;2022-12-18T11:29:33;-3.80;24.00
3256;DHT22;1640;48.504;9.224;2022-12-18T11:35:15;-3.70;25.90
3256;DHT22;1640;48.504;9.224;2022-12-18T11:37:48;-3.70;27.60
3256;DHT22;1640;48.504;9.224;2022-12-18T11:40:22;-3.80;24.80
3256;DHT22;1640;48.504;9.224;2022-12-18T11:42:58;-3.80;27.00
3256;DHT22;1640;48.504;9.224;2022-12-18T11:45:31;-3.70;31.60
3256;DHT22;1640;48.504;9.224;2022-12-18T11:48:04;-3.70;28.70
3256;DHT22;1640;48.504;9.224;2022-12-18T11:50:46;-3.60;29.80
3256;DHT22;1640;48.504;9.224;2022-12-18T11:53:16;-3.60;29.60
3256;DHT22;1640;48.504;9.224;2022-12-18T11:55:54;-3.80;25.80
3256;DHT22;1640;48.504;9.224;2022-12-18T11:58:30;-3.60;24.20
3256;DHT22;1640;48.504;9.224;2022-12-18T12:01:07;-3.40;21.40
3256;DHT22;1640;48.504;9.224;2022-12-18T12:03:58;-3.30;25.20
3256;DHT22;1640;48.504;9.224;2022-12-18T12:06:35;-3.20;28.70
3256;DHT22;1640;48.504;9.224;2022-12-18T12:09:15;-3.10;33.90
3256;DHT22;1640;48.504;9.224;2022-12-18T12:11:56;-3.10;38.40
3256;DHT22;1640;48.504;9.224;2022-12-18T12:14:36;-3.00;38.50
3256;DHT22;1640;48.504;9.224;2022-12-18T12:17:10;-2.90;41.90
3256;DHT22;1640;48.504;9.224;2022-12-18T12:19:45;-2.90;47.00
3256;DHT22;1640;48.504;9.224;2022-12-18T12:22:20;-2.90;47.20
3256;DHT22;1640;48.504;9.224;2022-12-18T12:25:02;-2.90;47.50
3256;DHT22;1640;48.504;9.224;2022-12-18T12:27:40;-2.80;49.90
3256;DHT22;1640;48.504;9.224;2022-12-18T12:30:14;-2.80;49.50
3256;DHT22;1640;48.504;9.224;2022-12-18T12:32:54;-2.80;49.70
3256;DHT22;1640;48.504;9.224;2022-12-18T12:35:35;-2.80;54.00
3256;DHT22;1640;48.504;9.224;2022-12-18T12:38:09;-2.70;47.60
3256;DHT22;1640;48.504;9.224;2022-12-18T12:40:41;-2.70;53.70
3256;DHT22;1640;48.504;9.224;2022-12-18T12:43:21;-2.60;52.30
3256;DHT22;1640;48.504;9.224;2022-12-18T12:45:52;-2.60;52.00
3256;DHT22;1640;48.504;9.224;2022-12-18T12:48:33;-2.50;50.40
3256;DHT22;1640;48.504;9.224;2022-12-18T12:51:04;-2.40;56.50
3256;DHT22;1640;48.504;9.224;2022-12-18T12:53:36;-2.40;57.40
3256;DHT22;1640;48.504;9.224;2022-12-18T12:56:05;-2.40;60.30
3256;DHT22;1640;48.504;9.224;2022-12-18T12:58:41;-2.40;62.00
3256;DHT22;1640;48.504;9.224;2022-12-18T13:01:17;-2.50;62.90
3256;DHT22;1640;48.504;9.224;2022-12-18T13:04:01;-2.50;58.40
3256;DHT22;1640;48.504;9.224;2022-12-18T13:06:39;-2.50;60.70
3256;DHT22;1640;48.504;9.224;2022-12-18T13:09:09;-2.50;59.70
3256;DHT22;1640;48.504;9.224;2022-12-18T13:11:39;-2.50;59.70
3256;DHT22;1640;48.504;9.224;2022-12-18T13:14:28;-2.40;58.60
3256;DHT22;1640;48.504;9.224;2022-12-18T13:17:26;-2.50;57.40
3256;DHT22;1640;48.504;9.224;2022-12-18T13:20:10;-2.40;54.20
3256;DHT22;1640;48.504;9.224;2022-12-18T13:22:40;-2.50;52.40
3256;DHT22;1640;48.504;9.224;2022-12-18T13:25:28;-2.50;52.70
3256;DHT22;1640;48.504;9.224;2022-12-18T13:28:20;-2.30;52.90
3256;DHT22;1640;48.504;9.224;2022-12-18T13:30:51;-2.30;60.60
3256;DHT22;1640;48.504;9.224;2022-12-18T13:33:49;-2.40;60.60
3256;DHT22;1640;48.504;9.224;2022-12-18T13:36:31;-2.40;58.90
3256;DHT22;1640;48.504;9.224;2022-12-18T13:39:22;-2.40;58.20
3256;DHT22;1640;48.504;9.224;2022-12-18T13:41:51;-2.30;57.00
3256;DHT22;1640;48.504;9.224;2022-12-18T13:44:32;-2.20;61.00
3256;DHT22;1640;48.504;9.224;2022-12-18T13:47:02;-2.20;61.60
3256;DHT22;1640;48.504;9.224;2022-12-18T13:49:37;-2.20;62.40
3256;DHT22;1640;48.504;9.224;2022-12-18T13:52:17;-2.20;59.90
3256;DHT22;1640;48.504;9.224;2022-12-18T13:54:50;-2.10;59.90
3256;DHT22;1640;48.504;9.224;2022-12-18T13:57:26;-2.10;58.80
3256;DHT22;1640;48.504;9.224;2022-12-18T13:59:55;-2.00;60.30
3256;DHT22;1640;48.504;9.224;2022-12-18T14:02:25;-2.00;61.10
3256;DHT22;1640;48.504;9.224;2022-12-18T14:04:53;-1.90;62.20
3256;DHT22;1640;48.504;9.224;2022-12-18T14:07:22;-1.90;62.30
3256;DHT22;1640;48.504;9.224;2022-12-18T14:09:51;-2.00;61.90
3256;DHT22;1640;48.504;9.224;2022-12-18T14:12:22;-2.00;61.40
3256;DHT22;1640;48.504;9.224;2022-12-18T14:15:17;-2.00;63.90
3256;DHT22;1640;48.504;9.224;2022-12-18T14:17:49;-2.00;62.00
3256;DHT22;1640;48.504;9.224;2022-12-18T14:20:17;-2.00;59.70
3256;DHT22;1640;48.504;9.224;2022-12-18T14:22:46;-2.10;58.80
3256;DHT22;1640;48.504;9.224;2022-12-18T14:25:17;-2.10;59.00
3256;DHT22;1640;48.504;9.224;2022-12-18T14:27:46;-2.20;57.50
3256;DHT22;1640;48.504;9.224;2022-12-18T14:30:32;-2.20;56.20
3256;DHT22;1640;48.504;9.224;2022-12-18T14:33:02;-2.30;53.60
3256;DHT22;1640;48.504;9.224;2022-12-18T14:35:31;-2.30;52.80
3256;DHT22;1640;48.504;9.224;2022-12-18T14:38:20;-2.40;49.50
3256;DHT22;1640;48.504;9.224;2022-12-18T14:40:48;-2.50;46.70
3256;DHT22;1640;48.504;9.224;2022-12-18T14:43:18;-2.60;40.20
3256;DHT22;1640;48.504;9.224;2022-12-18T14:45:46;-2.60;35.20
3256;DHT22;1640;48.504;9.224;2022-12-18T14:48:18;-2.70;27.70
3256;DHT22;1640;48.504;9.224;2022-12-18T14:50:59;-2.80;22.30
3256;DHT22;1640;48.504;9.224;2022-12-18T14:53:35;-2.90;17.90
3256;DHT22;1640;48.504;9.224;2022-12-18T14:56:10;-3.10;15.10
3256;DHT22;1640;48.504;9.224;2022-12-18T14:58:47;-3.20;9.40
3256;DHT22;1640;48.504;9.224;2022-12-18T15:01:24;-3.20;6.60
3256;DHT22;1640;48.504;9.224;2022-12-18T15:03:55;-3.20;6.70
3256;DHT22;1640;48.504;9.224;2022-12-18T15:06:27;-3.30;8.40
3256;DHT22;1640;48.504;9.224;2022-12-18T15:08:56;-3.40;6.90
3256;DHT22;1640;48.504;9.224;2022-12-18T15:11:29;-3.50;5.80
3256;DHT22;1640;48.504;9.224;2022-12-18T15:13:59;-3.70;2.00
3256;DHT22;1640;48.504;9.224;2022-12-18T15:16:26;-3.80;99.90
3256;DHT22;1640;48.504;9.224;2022-12-18T15:18:55;-3.80;99.90
3256;DHT22;1640;48.504;9.224;2022-12-18T15:21:23;-3.90;99.90
3256;DHT22;1640;48.504;9.224;2022-12-18T15:23:51;-4.00;99.90
3256;DHT22;1640;48.504;9.224;2022-12-18T15:26:21;-4.00;99.90
3256;DHT22;1640;48.504;9.224;2022-12-18T15:28:50;-4.10;99.90
3256;DHT22;1640;48.504;9.224;2022-12-18T15:31:30;-4.20;99.90
3256;DHT22;1640;48.504;9.224;2022-12-18T15:34:19;-4.20;99.90
3256;DHT22;1640;48.504;9.224;2022-12-18T15:36:47;-4.30;99.90
3256;DHT22;1640;48.504;9.224;2022-12-18T15:39:15;-4.30;99.90
3256;DHT22;1640;48.504;9.224;2022-12-18T15:41:42;-4.40;99.90
3256;DHT22;1640;48.504;9.224;2022-12-18T15:44:30;-4.50;99.90
3256;DHT22;1640;48.504;9.224;2022-12-18T15:46:57;-4.50;99.90
3256;DHT22;1640;48.504;9.224;2022-12-18T15:49:26;-4.50;99.90
3256;DHT22;1640;48.504;9.224;2022-12-18T15:51:54;-4.50;99.90
3256;DHT22;1640;48.504;9.224;2022-12-18T15:54:23;-4.60;99.90
3256;DHT22;1640;48.504;9.224;2022-12-18T15:57:07;-4.60;99.90
3256;DHT22;1640;48.504;9.224;2022-12-18T15:59:50;-4.60;99.90
3256;DHT22;1640;48.504;9.224;2022-12-18T16:02:20;-4.70;99.90
3256;DHT22;1640;48.504;9.224;2022-12-18T16:04:50;-4.70;99.90
3256;DHT22;1640;48.504;9.224;2022-12-18T16:07:18;-4.70;99.90
3256;DHT22;1640;48.504;9.224;2022-12-18T16:09:48;-4.80;99.90
3256;DHT22;1640;48.504;9.224;2022-12-18T16:12:18;-4.90;99.90
3256;DHT22;1640;48.504;9.224;2022-12-18T16:14:46;-4.90;99.90
3256;DHT22;1640;48.504;9.224;2022-12-18T16:17:14;-4.90;99.90
3256;DHT22;1640;48.504;9.224;2022-12-18T16:19:45;-4.90;99.90
3256;DHT22;1640;48.504;9.224;2022-12-18T16:22:21;-4.70;99.90
3256;DHT22;1640;48.504;9.224;2022-12-18T16:24:49;-4.70;99.90